Time;durP1;ratioP1;P1;durP2;ratioP2;P2;SDS_P1;SDS_P2;PMS_P1;PMS_P2;Temp;Humidity;BMP_temperature;BMP_pressure;BME280_temperature;BME280_humidity;BME280_pressure;Samples;Min_cycle;Max_cycle;Signal;HPM_P1;HPM_P2
2023/01/08 00:02:48;;;;;;;66.33;34.10;;;3.70;99.90;;;;;;4436458;28;656068;-68
2023/01/08 00:05:35;;;;;;;68.67;32.17;;;3.70;99.90;;;;;;4430028;28;655294;-68
2023/01/08 00:08:23;;;;;;;72.27;33.87;;;3.70;99.90;;;;;;4445680;28;657228;-67
2023/01/08 00:11:10;;;;;;;69.57;34.03;;;3.80;99.90;;;;;;4440946;28;655918;-68
2023/01/08 00:13:58;;;;;;;64.27;31.60;;;3.80;99.90;;;;;;4446593;28;656915;-67
2023/01/08 00:16:45;;;;;;;58.83;28.63;;;3.80;99.90;;;;;;4444263;28;655641;-68
2023/01/08 00:19:34;;;;;;;53.70;28.30;;;3.80;99.90;;;;;;4446064;28;656660;-67
2023/01/08 00:22:21;;;;;;;61.23;27.77;;;3.80;99.90;;;;;;4425940;28;656224;-67
2023/01/08 00:25:09;;;;;;;62.40;28.07;;;3.80;99.90;;;;;;4447451;28;655988;-68
2023/01/08 00:27:56;;;;;;;52.83;26.30;;;3.90;99.90;;;;;;4421856;28;655753;-67
2023/01/08 00:30:43;;;;;;;51.37;24.93;;;3.90;99.90;;;;;;4446824;28;655688;-68
2023/01/08 00:33:31;;;;;;;48.30;24.63;;;3.90;99.90;;;;;;4426855;28;655721;-68
2023/01/08 00:36:20;;;;;;;87.47;33.67;;;3.90;99.90;;;;;;4446945;28;656174;-67
2023/01/08 00:39:07;;;;;;;121.90;38.33;;;3.80;99.90;;;;;;4422525;28;656852;-67
2023/01/08 00:41:54;;;;;;;76.87;31.00;;;3.80;99.90;;;;;;4440063;28;656866;-67
2023/01/08 00:44:41;;;;;;;88.50;32.07;;;3.80;99.90;;;;;;4422383;28;656063;-67
2023/01/08 00:47:29;;;;;;;126.40;39.27;;;3.70;99.90;;;;;;4441519;28;655541;-67
2023/01/08 00:50:16;;;;;;;89.77;32.30;;;3.60;99.90;;;;;;4423787;28;657454;-68
2023/01/08 00:53:05;;;;;;;93.30;33.63;;;3.50;99.90;;;;;;4450534;28;655944;-67
2023/01/08 00:56:00;;;;;;;76.40;29.33;;;3.50;99.90;;;;;;4421840;28;656882;-67
2023/01/08 00:58:47;;;;;;;79.83;32.07;;;3.40;99.90;;;;;;4418581;28;656066;-67
2023/01/08 01:01:34;;;;;;;55.63;25.30;;;3.30;99.90;;;;;;4445988;28;656196;-67
2023/01/08 01:04:21;;;;;;;51.10;23.05;;;3.30;99.90;;;;;;4426522;28;655685;-67
2023/01/08 01:07:08;;;;;;;62.37;25.77;;;3.20;99.90;;;;;;4449388;28;655301;-67
2023/01/08 01:09:57;;;;;;;64.47;27.67;;;3.10;99.90;;;;;;4419592;28;655581;-68
2023/01/08 01:12:45;;;;;;;56.97;24.87;;;3.10;99.90;;;;;;4440918;28;656040;-68
2023/01/08 01:15:32;;;;;;;58.00;24.80;;;3.00;99.90;;;;;;4445373;28;656782;-68
2023/01/08 01:18:20;;;;;;;46.43;22.63;;;3.00;99.90;;;;;;4441891;28;656197;-67
2023/01/08 01:21:11;;;;;;;41.17;20.53;;;3.00;99.90;;;;;;4448757;28;655551;-67
2023/01/08 01:23:59;;;;;;;37.83;19.43;;;2.90;99.90;;;;;;4423767;28;656875;-67
2023/01/08 01:26:48;;;;;;;104.40;42.63;;;2.90;99.90;;;;;;4429744;28;655719;-68
2023/01/08 01:29:35;;;;;;;86.57;35.60;;;2.80;99.90;;;;;;4423220;28;656744;-68
2023/01/08 01:32:23;;;;;;;95.33;40.27;;;2.80;99.90;;;;;;4442438;28;656992;-67
2023/01/08 01:35:10;;;;;;;164.73;64.13;;;2.70;99.90;;;;;;4436622;28;656054;-68
2023/01/08 01:37:57;;;;;;;132.70;54.37;;;2.70;99.90;;;;;;4446012;28;657641;-67
2023/01/08 01:40:45;;;;;;;72.00;35.03;;;2.60;99.90;;;;;;4449276;28;656685;-68
2023/01/08 01:43:41;;;;;;;55.67;27.90;;;2.60;99.90;;;;;;4448259;28;656016;-67
2023/01/08 01:46:36;;;;;;;62.70;30.00;;;2.50;99.90;;;;;;4422467;28;655788;-67
2023/01/08 01:49:23;;;;;;;55.83;27.43;;;2.50;99.90;;;;;;4426627;28;656283;-67
2023/01/08 01:52:10;;;;;;;55.97;25.97;;;2.40;99.90;;;;;;4431747;28;655329;-67
2023/01/08 01:54:57;;;;;;;86.77;34.17;;;2.30;99.90;;;;;;4448615;28;656798;-67
2023/01/08 01:57:49;;;;;;;111.87;44.20;;;2.30;99.90;;;;;;4439213;28;655646;-68
2023/01/08 02:00:37;;;;;;;56.07;26.97;;;2.20;99.90;;;;;;4425959;28;657224;-68
2023/01/08 02:03:26;;;;;;;62.87;27.93;;;2.20;99.90;;;;;;4450130;28;655408;-67
2023/01/08 02:06:18;;;;;;;70.33;30.83;;;2.10;99.90;;;;;;4426449;28;656217;-68
2023/01/08 02:09:09;;;;;;;76.43;33.90;;;2.10;99.90;;;;;;4408738;28;656508;-68
2023/01/08 02:12:17;;;;;;;68.80;31.83;;;2.10;99.90;;;;;;4429325;28;655338;-67
2023/01/08 02:15:07;;;;;;;70.78;31.65;;;2.10;99.90;;;;;;4425392;28;657036;-67
2023/01/08 02:17:58;;;;;;;60.40;26.40;;;2.10;99.90;;;;;;4425134;28;656933;-67
2023/01/08 02:20:47;;;;;;;81.23;33.93;;;2.10;99.90;;;;;;4411108;28;655628;-69
2023/01/08 02:23:38;;;;;;;74.17;32.50;;;2.00;99.90;;;;;;4449471;28;655896;-67
2023/01/08 02:26:27;;;;;;;69.87;31.53;;;2.00;99.90;;;;;;4420024;28;655823;-68
2023/01/08 02:29:15;;;;;;;79.43;34.50;;;1.90;99.90;;;;;;4445689;28;655867;-67
2023/01/08 02:32:02;;;;;;;88.32;38.53;;;1.90;99.90;;;;;;4429056;28;656356;-67
2023/01/08 02:34:49;;;;;;;68.47;32.60;;;1.80;99.90;;;;;;4450002;28;655989;-67
2023/01/08 02:37:37;;;;;;;77.10;33.73;;;1.80;99.90;;;;;;4432298;28;655841;-67
2023/01/08 02:40:26;;;;;;;79.78;33.22;;;1.70;99.90;;;;;;4447810;28;655496;-67
2023/01/08 02:43:17;;;;;;;67.23;29.93;;;1.70;99.90;;;;;;4424503;28;658054;-67
2023/01/08 02:46:04;;;;;;;77.40;32.63;;;1.70;99.90;;;;;;4432428;28;655768;-67
2023/01/08 02:48:52;;;;;;;69.60;30.98;;;1.60;99.90;;;;;;4427957;28;655675;-67
2023/01/08 02:51:42;;;;;;;82.33;36.63;;;1.60;99.90;;;;;;4443467;28;655902;-68
2023/01/08 02:54:30;;;;;;;84.80;37.13;;;1.60;99.90;;;;;;4448034;28;655795;-67
2023/01/08 02:57:18;;;;;;;61.40;27.67;;;1.60;99.90;;;;;;4423905;28;657536;-67
2023/01/08 03:00:08;;;;;;;79.97;31.97;;;1.50;99.90;;;;;;4440416;28;656966;-68
2023/01/08 03:03:02;;;;;;;83.80;33.13;;;1.50;99.90;;;;;;4429833;28;655774;-68
2023/01/08 03:05:51;;;;;;;88.37;34.50;;;1.50;99.90;;;;;;4425588;28;655730;-67
2023/01/08 03:08:39;;;;;;;78.93;33.20;;;1.50;99.90;;;;;;4416586;28;656748;-67
2023/01/08 03:11:30;;;;;;;69.97;30.73;;;1.50;99.90;;;;;;4427118;28;655623;-67
2023/01/08 03:14:19;;;;;;;65.53;27.00;;;1.50;99.90;;;;;;4420963;28;656858;-67
2023/01/08 03:17:10;;;;;;;91.07;34.33;;;1.50;99.90;;;;;;4421533;28;656373;-67
2023/01/08 03:19:59;;;;;;;80.70;31.13;;;1.50;99.90;;;;;;4430652;28;656454;-67
2023/01/08 03:22:47;;;;;;;80.25;31.30;;;1.50;99.90;;;;;;4425420;28;656031;-67
2023/01/08 03:25:34;;;;;;;57.03;25.10;;;1.50;99.90;;;;;;4444019;28;656265;-67
2023/01/08 03:28:23;;;;;;;54.17;24.07;;;1.50;99.90;;;;;;4415989;28;656875;-68
2023/01/08 03:31:11;;;;;;;56.03;25.27;;;1.50;99.90;;;;;;4430832;28;655138;-67
2023/01/08 03:33:59;;;;;;;103.33;38.37;;;1.50;99.90;;;;;;4455757;28;656459;-67
2023/01/08 03:36:48;;;;;;;84.67;34.97;;;1.50;99.90;;;;;;4424104;28;656693;-67
2023/01/08 03:39:40;;;;;;;79.77;33.67;;;1.50;99.90;;;;;;4445179;28;655416;-68
2023/01/08 03:42:27;;;;;;;46.07;22.90;;;1.50;99.90;;;;;;4425027;28;657167;-67
2023/01/08 03:45:14;;;;;;;48.13;23.40;;;1.40;99.90;;;;;;4450323;28;655640;-67
2023/01/08 03:48:02;;;;;;;88.17;36.67;;;1.50;99.90;;;;;;4427510;28;656026;-67
2023/01/08 03:50:50;;;;;;;56.97;27.60;;;1.40;99.90;;;;;;4451397;28;655291;-67
2023/01/08 03:53:38;;;;;;;77.20;36.50;;;1.40;99.90;;;;;;4420949;28;656954;-67
2023/01/08 03:56:25;;;;;;;65.43;31.60;;;1.40;99.90;;;;;;4439775;28;655051;-68
2023/01/08 03:59:13;;;;;;;46.47;22.17;;;1.40;99.90;;;;;;4451314;28;657491;-67
2023/01/08 04:02:00;;;;;;;75.97;29.27;;;1.40;99.90;;;;;;4432105;28;655539;-68
2023/01/08 04:04:47;;;;;;;85.13;26.30;;;1.30;99.90;;;;;;4441037;28;656982;-67
2023/01/08 04:07:37;;;;;;;145.77;34.13;;;1.30;99.90;;;;;;4441809;28;656129;-68
2023/01/08 04:10:24;;;;;;;197.23;47.73;;;1.30;99.90;;;;;;4450307;28;656206;-67
2023/01/08 04:13:11;;;;;;;72.17;27.07;;;1.30;99.90;;;;;;4426313;28;656032;-67
2023/01/08 04:15:58;;;;;;;56.17;23.67;;;1.20;99.90;;;;;;4445714;28;656297;-68
2023/01/08 04:18:46;;;;;;;60.03;25.20;;;1.20;99.90;;;;;;4427601;28;655540;-67
2023/01/08 04:21:33;;;;;;;194.53;66.23;;;1.20;99.90;;;;;;4452792;28;656422;-68
2023/01/08 04:24:22;;;;;;;159.10;55.77;;;1.20;99.90;;;;;;4431105;28;657478;-68
2023/01/08 04:27:09;;;;;;;268.07;72.77;;;1.20;99.90;;;;;;4451369;28;657106;-67
2023/01/08 04:29:56;;;;;;;232.20;64.77;;;1.20;99.90;;;;;;4427531;28;656402;-67
2023/01/08 04:32:43;;;;;;;148.43;47.33;;;1.10;99.90;;;;;;4447637;28;657948;-67
2023/01/08 04:35:30;;;;;;;120.23;51.63;;;1.10;99.90;;;;;;4423848;28;657069;-67
2023/01/08 04:38:18;;;;;;;79.73;38.33;;;1.00;99.90;;;;;;4445993;28;658217;-67
2023/01/08 04:41:07;;;;;;;62.97;32.13;;;1.00;99.90;;;;;;4438980;28;655517;-68
2023/01/08 04:43:54;;;;;;;47.23;26.87;;;1.00;99.90;;;;;;4449334;28;655674;-67
2023/01/08 04:46:41;;;;;;;54.00;28.60;;;1.00;99.90;;;;;;4427715;28;656046;-68
2023/01/08 04:49:28;;;;;;;64.00;33.70;;;1.00;99.90;;;;;;4442932;28;656617;-67
2023/01/08 04:52:16;;;;;;;58.57;29.17;;;1.00;99.90;;;;;;4428248;28;655348;-68
2023/01/08 04:55:03;;;;;;;65.20;33.57;;;1.00;99.90;;;;;;4452957;28;655946;-67
2023/01/08 04:57:52;;;;;;;114.03;49.50;;;0.90;99.90;;;;;;4418324;28;655259;-68
2023/01/08 05:00:39;;;;;;;42.73;21.83;;;0.90;99.90;;;;;;4447652;28;656423;-67
2023/01/08 05:03:26;;;;;;;126.23;44.30;;;0.90;99.90;;;;;;4420276;28;655449;-68
2023/01/08 05:06:14;;;;;;;278.13;82.83;;;0.80;99.90;;;;;;4447006;28;657701;-67
2023/01/08 05:09:01;;;;;;;195.20;56.63;;;0.80;99.90;;;;;;4428038;28;657024;-68
2023/01/08 05:11:48;;;;;;;82.53;27.63;;;0.70;99.90;;;;;;4444948;28;656812;-67
2023/01/08 05:14:37;;;;;;;209.97;55.47;;;0.60;99.90;;;;;;4419403;28;656992;-68
2023/01/08 05:17:24;;;;;;;146.80;42.93;;;0.50;99.90;;;;;;4447131;28;656281;-67
2023/01/08 05:20:11;;;;;;;187.00;51.33;;;0.40;99.90;;;;;;4425983;28;657269;-68
2023/01/08 05:22:59;;;;;;;172.90;47.63;;;0.40;99.90;;;;;;4447369;28;657059;-67
2023/01/08 05:25:46;;;;;;;212.87;52.50;;;0.40;99.90;;;;;;4423092;28;656512;-68
2023/01/08 05:28:33;;;;;;;112.43;34.40;;;0.40;99.90;;;;;;4437843;28;657094;-67
2023/01/08 05:31:22;;;;;;;213.73;54.47;;;0.40;99.90;;;;;;4421086;28;657836;-67
2023/01/08 05:34:09;;;;;;;178.73;52.87;;;0.30;99.90;;;;;;4449880;28;656983;-67
2023/01/08 05:36:56;;;;;;;208.30;57.50;;;0.40;99.90;;;;;;4423859;28;656393;-67
2023/01/08 05:39:43;;;;;;;174.17;50.63;;;0.40;99.90;;;;;;4452594;28;657290;-67
2023/01/08 05:42:31;;;;;;;52.60;20.70;;;0.30;99.90;;;;;;4423035;28;656312;-67
2023/01/08 05:45:18;;;;;;;30.37;15.80;;;0.40;99.90;;;;;;4446896;28;657130;-67
2023/01/08 05:48:07;;;;;;;95.13;30.93;;;0.50;99.90;;;;;;4429046;28;656949;-68
2023/01/08 05:50:54;;;;;;;123.00;36.30;;;0.50;99.90;;;;;;4440637;28;655753;-67
2023/01/08 05:53:41;;;;;;;48.50;20.33;;;0.60;99.90;;;;;;4420272;28;656779;-67
2023/01/08 05:56:29;;;;;;;64.23;24.50;;;0.60;99.90;;;;;;4440692;28;656012;-67
2023/01/08 05:59:16;;;;;;;74.13;27.03;;;0.60;99.90;;;;;;4429712;28;655653;-67
2023/01/08 06:02:03;;;;;;;126.23;36.33;;;0.60;99.90;;;;;;4443065;28;656216;-67
2023/01/08 06:04:52;;;;;;;268.48;64.50;;;0.60;99.90;;;;;;4423373;28;656559;-68
2023/01/08 06:07:39;;;;;;;366.27;91.27;;;0.60;99.90;;;;;;4448752;28;656383;-67
2023/01/08 06:10:26;;;;;;;304.70;75.87;;;0.60;99.90;;;;;;4431415;28;656705;-67
2023/01/08 06:13:13;;;;;;;553.90;133.67;;;0.60;99.90;;;;;;4446752;28;657265;-67
2023/01/08 06:16:01;;;;;;;139.93;41.67;;;0.60;99.90;;;;;;4421552;28;657451;-68
2023/01/08 06:18:48;;;;;;;82.03;29.23;;;0.60;99.90;;;;;;4443378;28;657435;-68
2023/01/08 06:21:37;;;;;;;232.83;56.97;;;0.70;99.90;;;;;;4426120;28;655497;-68
2023/01/08 06:24:24;;;;;;;115.60;37.10;;;0.60;99.90;;;;;;4440303;28;656421;-67
2023/01/08 06:27:11;;;;;;;270.07;64.07;;;0.60;99.90;;;;;;4428215;28;657726;-68
2023/01/08 06:29:58;;;;;;;580.13;134.93;;;0.70;99.90;;;;;;4445880;28;657120;-68
2023/01/08 06:32:45;;;;;;;224.90;56.83;;;0.70;99.90;;;;;;4431830;28;658139;-68
2023/01/08 06:35:33;;;;;;;186.47;47.77;;;0.70;99.90;;;;;;4444402;28;657695;-67
2023/01/08 06:38:22;;;;;;;116.53;34.50;;;0.70;99.90;;;;;;4430805;28;656880;-67
2023/01/08 06:41:10;;;;;;;92.77;29.40;;;0.80;99.90;;;;;;4445499;28;656386;-67
2023/01/08 06:43:57;;;;;;;55.93;23.03;;;0.80;99.90;;;;;;4425346;28;656416;-68
2023/01/08 06:46:44;;;;;;;122.53;38.50;;;0.80;99.90;;;;;;4448072;28;655937;-67
2023/01/08 06:49:31;;;;;;;51.60;21.20;;;0.80;99.90;;;;;;4427175;28;656224;-68
2023/01/08 06:52:18;;;;;;;90.23;28.80;;;0.90;99.90;;;;;;4446755;28;657158;-67
2023/01/08 06:55:09;;;;;;;29.33;15.17;;;0.80;99.90;;;;;;4426529;28;655804;-67
2023/01/08 06:57:56;;;;;;;92.63;32.10;;;0.80;99.90;;;;;;4431402;28;655555;-67
2023/01/08 07:00:43;;;;;;;53.43;22.07;;;0.90;99.90;;;;;;4452366;28;655920;-67
2023/01/08 07:03:30;;;;;;;163.27;36.90;;;0.90;99.90;;;;;;4423618;28;655681;-67
2023/01/08 07:06:19;;;;;;;295.23;66.80;;;0.90;99.90;;;;;;4457404;28;656288;-68
2023/01/08 07:09:06;;;;;;;357.77;76.10;;;1.00;99.90;;;;;;4426965;28;656443;-67
2023/01/08 07:11:54;;;;;;;317.33;82.37;;;1.10;99.90;;;;;;4448049;28;657575;-67
2023/01/08 07:14:42;;;;;;;84.37;29.83;;;1.10;99.90;;;;;;4426490;28;657587;-67
2023/01/08 07:17:29;;;;;;;58.40;24.55;;;1.20;99.90;;;;;;4445882;28;655535;-66
2023/01/08 07:20:16;;;;;;;101.20;33.83;;;1.20;99.90;;;;;;4432831;28;656186;-66
2023/01/08 07:23:03;;;;;;;47.43;23.27;;;1.30;99.90;;;;;;4445650;28;657575;-66
2023/01/08 07:25:51;;;;;;;82.33;35.67;;;1.30;99.90;;;;;;4423764;28;655707;-71
2023/01/08 07:28:39;;;;;;;65.60;28.33;;;1.40;99.90;;;;;;4451047;28;656097;-70
2023/01/08 07:31:27;;;;;;;84.47;38.40;;;1.60;99.90;;;;;;4429642;28;655471;-71
2023/01/08 07:34:14;;;;;;;67.87;31.23;;;1.70;99.90;;;;;;4455273;28;655510;-70
2023/01/08 07:37:01;;;;;;;48.53;23.60;;;1.80;99.90;;;;;;4423487;28;655657;-70
2023/01/08 07:39:48;;;;;;;61.38;25.13;;;1.90;99.90;;;;;;4442617;28;656919;-70
2023/01/08 07:42:35;;;;;;;47.00;20.27;;;2.00;99.90;;;;;;4435341;28;655187;-70
2023/01/08 07:45:24;;;;;;;90.20;32.20;;;2.10;99.90;;;;;;4448527;28;656554;-70
2023/01/08 07:48:14;;;;;;;125.50;47.43;;;2.20;99.90;;;;;;4430481;28;655489;-70
2023/01/08 07:51:02;;;;;;;130.03;54.40;;;2.30;99.90;;;;;;4428714;28;656538;-70
2023/01/08 07:53:50;;;;;;;136.97;57.63;;;2.40;99.90;;;;;;4450772;28;655902;-69
2023/01/08 07:56:37;;;;;;;85.17;41.17;;;2.50;99.90;;;;;;4429969;28;658773;-69
2023/01/08 07:59:24;;;;;;;71.57;37.00;;;2.70;99.90;;;;;;4458631;28;655211;-69
2023/01/08 08:02:13;;;;;;;136.60;47.53;;;2.80;99.90;;;;;;4433804;28;655720;-68
2023/01/08 08:05:00;;;;;;;82.77;34.57;;;3.10;99.90;;;;;;4433375;28;656452;-68
2023/01/08 08:07:47;;;;;;;61.37;29.13;;;3.20;99.90;;;;;;4450559;28;656606;-68
2023/01/08 08:10:35;;;;;;;42.43;21.43;;;3.40;99.90;;;;;;4452313;28;655134;-68
2023/01/08 08:13:22;;;;;;;41.27;19.27;;;3.60;99.90;;;;;;4447078;28;655864;-68
2023/01/08 08:16:10;;;;;;;37.93;20.53;;;3.70;99.90;;;;;;4439662;28;655186;-68
2023/01/08 08:18:59;;;;;;;33.73;17.23;;;3.80;99.90;;;;;;4429230;28;656200;-68
2023/01/08 08:21:47;;;;;;;33.17;16.83;;;4.00;99.90;;;;;;4400579;28;656401;-68
2023/01/08 08:24:34;;;;;;;41.33;19.57;;;4.00;99.90;;;;;;4424007;28;656089;-69
2023/01/08 08:27:23;;;;;;;30.17;17.37;;;4.20;99.90;;;;;;4412125;28;655561;-69
2023/01/08 08:30:11;;;;;;;29.23;17.03;;;4.50;99.90;;;;;;4407635;28;655460;-68
2023/01/08 08:32:59;;;;;;;23.57;14.47;;;4.80;99.90;;;;;;4430219;28;656081;-69
2023/01/08 08:35:50;;;;;;;23.83;13.10;;;5.10;99.90;;;;;;4406835;28;655710;-69
2023/01/08 08:38:37;;;;;;;21.70;12.50;;;5.60;99.90;;;;;;4423129;28;655852;-69
2023/01/08 08:41:24;;;;;;;23.65;13.38;;;6.10;99.90;;;;;;4436472;28;656156;-69
2023/01/08 08:44:11;;;;;;;29.37;15.93;;;6.50;99.90;;;;;;4397903;28;656177;-69
2023/01/08 08:46:59;;;;;;;22.33;12.70;;;6.70;99.90;;;;;;4430851;28;655253;-69
2023/01/08 08:49:46;;;;;;;16.93;10.87;;;7.10;99.90;;;;;;4405059;28;656093;-69
2023/01/08 08:52:36;;;;;;;18.07;10.30;;;7.20;99.90;;;;;;4427878;28;656521;-69
2023/01/08 08:55:23;;;;;;;27.93;15.20;;;7.30;99.90;;;;;;4395453;28;655701;-70
2023/01/08 08:58:11;;;;;;;26.03;12.77;;;7.40;99.90;;;;;;4411011;28;655899;-70
2023/01/08 09:01:01;;;;;;;22.37;12.70;;;7.50;99.90;;;;;;4427118;28;655636;-70
2023/01/08 09:03:48;;;;;;;27.63;13.90;;;7.50;99.90;;;;;;4401285;28;656752;-70
2023/01/08 09:06:36;;;;;;;137.83;42.87;;;7.50;99.90;;;;;;4412430;28;655651;-70
2023/01/08 09:09:24;;;;;;;51.63;21.07;;;7.50;99.90;;;;;;4434176;28;657276;-70
2023/01/08 09:12:12;;;;;;;38.97;17.33;;;7.50;99.90;;;;;;4412959;28;655536;-70
2023/01/08 09:14:59;;;;;;;28.87;13.83;;;7.60;99.90;;;;;;4435494;28;655843;-71
2023/01/08 09:17:46;;;;;;;63.37;24.10;;;7.40;99.90;;;;;;4422538;28;655722;-71
2023/01/08 09:20:33;;;;;;;38.47;18.87;;;7.40;99.90;;;;;;4447690;28;656569;-71
2023/01/08 09:23:20;;;;;;;54.10;23.50;;;7.30;99.90;;;;;;4418397;28;655639;-71
2023/01/08 09:26:09;;;;;;;34.70;17.23;;;7.30;99.90;;;;;;4441618;28;656536;-71
2023/01/08 09:28:57;;;;;;;29.33;15.20;;;7.30;99.90;;;;;;4414390;28;655502;-71
2023/01/08 09:31:45;;;;;;;28.27;13.80;;;7.20;99.90;;;;;;4432772;28;656273;-71
2023/01/08 09:34:33;;;;;;;26.60;14.43;;;7.10;99.90;;;;;;4425528;28;656558;-72
2023/01/08 09:37:22;;;;;;;29.70;15.23;;;7.10;99.90;;;;;;4439996;28;655384;-72
2023/01/08 09:40:11;;;;;;;27.20;15.23;;;7.10;99.90;;;;;;4434095;28;656313;-72
2023/01/08 09:43:00;;;;;;;33.67;17.27;;;7.10;99.90;;;;;;4410733;28;656085;-72
2023/01/08 09:45:50;;;;;;;30.17;16.65;;;7.10;99.90;;;;;;4410930;28;656564;-72
2023/01/08 09:48:38;;;;;;;29.90;15.43;;;7.10;99.90;;;;;;4415950;28;656578;-72
2023/01/08 09:51:30;;;;;;;33.27;16.30;;;7.00;99.90;;;;;;4421410;28;655721;-72
2023/01/08 09:54:18;;;;;;;37.27;19.43;;;6.90;99.90;;;;;;4411842;28;656690;-72
2023/01/08 09:57:05;;;;;;;36.57;18.90;;;6.90;99.90;;;;;;4432845;28;655546;-73
2023/01/08 09:59:54;;;;;;;28.40;15.60;;;6.80;99.90;;;;;;4435575;28;656216;-72
2023/01/08 10:02:41;;;;;;;27.70;14.73;;;6.90;99.90;;;;;;4427774;28;656157;-72
2023/01/08 10:05:28;;;;;;;25.77;12.87;;;7.30;99.90;;;;;;4449301;28;656854;-73
2023/01/08 10:08:16;;;;;;;27.30;13.63;;;8.00;99.90;;;;;;4429716;28;655363;-71
2023/01/08 10:11:03;;;;;;;21.93;12.20;;;9.00;99.90;;;;;;4452287;28;656680;-71
2023/01/08 10:13:53;;;;;;;21.93;11.53;;;10.00;99.90;;;;;;4425732;28;655837;-71
2023/01/08 10:16:42;;;;;;;18.97;11.60;;;10.90;99.90;;;;;;4427943;28;658843;-71
2023/01/08 10:19:29;;;;;;;19.63;12.30;;;11.70;99.90;;;;;;4452059;28;656274;-72
2023/01/08 10:22:17;;;;;;;27.07;13.70;;;12.20;99.70;;;;;;4436130;28;657368;-71
2023/01/08 10:25:10;;;;;;;20.57;11.90;;;12.30;96.50;;;;;;4447785;28;656332;-72
2023/01/08 10:27:58;;;;;;;18.63;9.80;;;12.40;96.30;;;;;;4392682;28;657656;-71
2023/01/08 10:30:45;;;;;;;10.93;6.90;;;12.30;94.00;;;;;;4441029;28;655402;-72
2023/01/08 10:33:38;;;;;;;9.90;6.27;;;12.40;93.10;;;;;;4439446;28;656375;-72
2023/01/08 10:36:26;;;;;;;10.27;6.87;;;12.40;92.60;;;;;;4403494;28;654676;-71
2023/01/08 10:39:18;;;;;;;14.37;8.67;;;12.80;90.50;;;;;;4435500;28;656468;-72
2023/01/08 10:42:06;;;;;;;10.73;6.53;;;13.10;88.30;;;;;;4402837;28;655819;-72
2023/01/08 10:44:56;;;;;;;9.83;6.40;;;13.60;85.00;;;;;;4437894;28;655800;-72
2023/01/08 10:47:44;;;;;;;9.50;5.93;;;14.00;77.60;;;;;;4426044;28;655191;-72
2023/01/08 10:50:33;;;;;;;8.87;6.07;;;14.40;74.40;;;;;;4418157;28;654645;-72
2023/01/08 10:53:24;;;;;;;9.33;6.10;;;14.40;75.00;;;;;;4425282;28;654661;-72
2023/01/08 10:56:18;;;;;;;10.70;6.00;;;15.10;72.40;;;;;;4426994;28;654446;-72
2023/01/08 10:59:06;;;;;;;10.13;6.43;;;15.70;69.80;;;;;;4405349;28;655970;-72
2023/01/08 11:01:54;;;;;;;9.00;6.20;;;16.10;66.50;;;;;;4455007;28;656991;-72
2023/01/08 11:04:42;;;;;;;8.80;5.50;;;16.30;64.00;;;;;;4426145;28;654207;-72
2023/01/08 11:07:30;;;;;;;7.70;5.33;;;16.20;61.00;;;;;;4444257;28;654365;-72
2023/01/08 11:10:22;;;;;;;10.30;5.63;;;15.70;59.70;;;;;;4423074;28;654991;-72
2023/01/08 11:13:16;;;;;;;8.47;5.83;;;14.90;62.40;;;;;;4426293;28;656039;-72
2023/01/08 11:16:06;;;;;;;9.33;5.97;;;14.00;65.30;;;;;;4421376;28;654955;-72
2023/01/08 11:18:53;;;;;;;13.00;7.87;;;13.60;66.20;;;;;;4424800;28;655284;-72
2023/01/08 11:21:41;;;;;;;13.47;7.60;;;13.20;68.60;;;;;;4430869;28;655952;-72
2023/01/08 11:24:31;;;;;;;12.23;7.43;;;13.00;68.30;;;;;;4448426;28;656343;-72
2023/01/08 11:27:21;;;;;;;12.03;7.03;;;12.70;70.80;;;;;;4425781;28;656121;-73
2023/01/08 11:30:12;;;;;;;14.57;8.25;;;12.70;72.50;;;;;;4420444;28;656609;-73
2023/01/08 11:33:02;;;;;;;16.70;8.67;;;12.50;74.50;;;;;;4421041;28;655917;-72
2023/01/08 11:35:50;;;;;;;13.70;7.70;;;12.40;74.30;;;;;;4426773;28;655271;-72
2023/01/08 11:38:38;;;;;;;12.03;7.07;;;12.30;75.20;;;;;;4420784;28;656702;-72
2023/01/08 11:41:34;;;;;;;13.90;7.43;;;11.90;76.40;;;;;;4455723;28;655399;-72
2023/01/08 11:44:28;;;;;;;14.93;7.67;;;11.40;80.80;;;;;;4404640;28;656328;-72
2023/01/08 11:47:20;;;;;;;9.30;5.70;;;11.60;84.20;;;;;;4406647;28;655374;-72
2023/01/08 11:50:13;;;;;;;8.93;5.70;;;12.00;83.50;;;;;;4426329;28;654914;-72
2023/01/08 11:53:10;;;;;;;22.02;9.50;;;12.80;83.30;;;;;;4401885;28;654408;-72
2023/01/08 11:56:06;;;;;;;18.27;11.40;;;13.50;75.60;;;;;;4416359;28;655770;-73
2023/01/08 11:59:03;;;;;;;60.20;27.50;;;13.80;73.40;;;;;;4422687;28;657153;-73
2023/01/08 12:01:56;;;;;;;41.60;21.20;;;14.00;73.30;;;;;;4408104;28;656011;-72
2023/01/08 12:05:02;;;;;;;71.27;39.17;;;14.30;71.60;;;;;;4419268;28;657693;-72
2023/01/08 12:07:52;;;;;;;24.77;14.37;;;14.50;68.20;;;;;;4419023;28;657100;-72
2023/01/08 12:10:53;;;;;;;8.67;5.50;;;14.20;68.40;;;;;;4413256;28;656572;-72
2023/01/08 12:13:49;;;;;;;8.53;5.20;;;14.00;69.20;;;;;;4399255;28;654903;-72
2023/01/08 12:16:47;;;;;;;13.33;7.60;;;13.90;69.90;;;;;;4400301;28;654523;-72
2023/01/08 12:19:44;;;;;;;22.10;13.50;;;14.10;70.10;;;;;;4414458;28;655703;-72
2023/01/08 12:22:38;;;;;;;13.53;8.13;;;14.60;69.10;;;;;;4419651;28;656834;-72
2023/01/08 12:25:46;;;;;;;29.57;12.50;;;15.30;66.70;;;;;;4404675;28;656027;-72
2023/01/08 12:28:52;;;;;;;20.08;9.55;;;15.90;65.10;;;;;;4413040;28;656865;-72
2023/01/08 12:31:52;;;;;;;20.63;10.70;;;16.30;62.00;;;;;;4419173;28;655971;-72
2023/01/08 12:34:47;;;;;;;8.53;5.80;;;16.80;60.00;;;;;;4436512;28;656131;-72
2023/01/08 12:37:36;;;;;;;11.85;6.63;;;17.50;57.50;;;;;;4412322;28;655080;-72
2023/01/08 12:40:24;;;;;;;11.85;7.10;;;17.60;55.50;;;;;;4414253;28;656139;-72
2023/01/08 12:43:14;;;;;;;10.18;6.90;;;17.70;55.20;;;;;;4419375;28;655720;-72
2023/01/08 12:46:01;;;;;;;8.93;6.95;;;18.00;54.80;;;;;;4415110;28;655959;-72
2023/01/08 12:48:51;;;;;;;11.57;7.10;;;18.60;53.50;;;;;;4445272;28;656281;-72
2023/01/08 12:51:39;;;;;;;12.52;8.27;;;18.80;52.20;;;;;;4419911;28;656310;-72
2023/01/08 12:54:28;;;;;;;10.90;7.43;;;19.50;52.70;;;;;;4424583;28;655454;-72
2023/01/08 12:57:19;;;;;;;11.60;7.70;;;20.20;50.60;;;;;;4425682;28;655573;-72
2023/01/08 13:00:08;;;;;;;11.60;7.60;;;20.80;48.40;;;;;;4416287;28;655512;-72
2023/01/08 13:02:57;;;;;;;13.88;8.30;;;20.80;47.20;;;;;;4427778;28;655465;-72
2023/01/08 13:05:47;;;;;;;14.23;9.05;;;20.90;47.10;;;;;;4436189;28;655701;-72
2023/01/08 13:08:34;;;;;;;16.35;9.98;;;20.80;46.00;;;;;;4443782;28;655670;-72
2023/01/08 13:11:25;;;;;;;10.82;7.68;;;20.50;46.30;;;;;;4419110;28;655679;-72
2023/01/08 13:14:13;;;;;;;12.27;7.45;;;20.70;45.70;;;;;;4414636;28;656511;-72
2023/01/08 13:17:02;;;;;;;13.55;8.43;;;20.60;45.40;;;;;;4431688;28;655495;-72
2023/01/08 13:19:52;;;;;;;12.77;9.10;;;20.10;46.60;;;;;;4435218;28;655707;-72
2023/01/08 13:22:41;;;;;;;12.02;8.18;;;20.20;47.50;;;;;;4422433;28;656751;-71
2023/01/08 13:25:30;;;;;;;11.40;7.22;;;20.30;46.20;;;;;;4416706;28;656527;-71
2023/01/08 13:28:25;;;;;;;11.00;7.20;;;20.00;45.70;;;;;;4411528;28;656387;-72
2023/01/08 13:31:26;;;;;;;11.87;7.60;;;19.10;46.80;;;;;;4389756;28;655719;-72
2023/01/08 13:34:21;;;;;;;11.90;8.40;;;18.40;48.40;;;;;;4423170;28;655944;-71
2023/01/08 13:37:08;;;;;;;13.80;7.90;;;17.90;48.80;;;;;;4414561;28;655978;-71
2023/01/08 13:39:57;;;;;;;14.60;9.53;;;17.60;49.90;;;;;;4419067;28;655128;-71
2023/01/08 13:42:44;;;;;;;15.90;10.83;;;17.70;51.60;;;;;;4443741;28;655758;-71
2023/01/08 13:45:31;;;;;;;12.90;8.43;;;17.80;49.70;;;;;;4424582;28;657270;-70
2023/01/08 13:48:22;;;;;;;16.83;9.53;;;17.80;49.70;;;;;;4438155;28;655859;-71
2023/01/08 13:51:41;;;;;;;14.80;9.30;;;18.00;49.90;;;;;;4413568;28;655356;-71
2023/01/08 13:54:35;;;;;;;15.03;9.13;;;18.40;48.40;;;;;;4419641;28;655475;-71
2023/01/08 13:57:24;;;;;;;15.53;8.60;;;18.70;47.50;;;;;;4427683;28;655420;-70
2023/01/08 14:00:23;;;;;;;30.33;15.43;;;18.20;48.30;;;;;;4434511;28;655827;-70
2023/01/08 14:03:22;;;;;;;15.80;8.07;;;17.20;49.40;;;;;;4404510;28;656381;-70
2023/01/08 14:06:20;;;;;;;17.67;8.27;;;15.50;52.40;;;;;;4423984;28;655696;-70
2023/01/08 14:09:14;;;;;;;15.63;8.60;;;14.10;57.10;;;;;;4399476;28;655486;-70
2023/01/08 14:12:01;;;;;;;15.40;8.90;;;13.10;59.00;;;;;;4396463;28;655766;-70
2023/01/08 14:14:51;;;;;;;16.77;8.87;;;12.10;63.50;;;;;;4440452;28;655931;-70
2023/01/08 14:17:39;;;;;;;18.40;9.43;;;11.50;66.30;;;;;;4426119;28;657164;-70